Time;durP1;ratioP1;P1;durP2;ratioP2;P2;SDS_P1;SDS_P2;PMS_P1;PMS_P2;Temp;Humidity;BMP_temperature;BMP_pressure;BME280_temperature;BME280_humidity;BME280_pressure;Samples;Min_cycle;Max_cycle;Signal;HPM_P1;HPM_P2
2023/02/26 00:02:09;;;;;;;7.17;3.17;;;;;;;;;;4958994;28;20180;-73
2023/02/26 00:04:34;;;;;;;5.90;3.10;;;;;;;;;;4953069;29;20200;-72
2023/02/26 00:07:00;;;;;;;6.13;3.30;;;;;;;;;;4953992;28;20188;-73
2023/02/26 00:09:25;;;;;;;7.20;3.50;;;;;;;;;;4954120;29;20666;-72
2023/02/26 00:11:50;;;;;;;10.63;3.83;;;;;;;;;;4953717;28;20643;-73
2023/02/26 00:14:16;;;;;;;6.13;3.13;;;;;;;;;;4953880;29;20295;-73
2023/02/26 00:16:42;;;;;;;7.17;2.97;;;;;;;;;;4953684;28;20180;-73
2023/02/26 00:19:10;;;;;;;7.87;3.00;;;;;;;;;;4953799;29;20627;-73
2023/02/26 00:21:35;;;;;;;4.93;2.60;;;;;;;;;;4953104;28;20177;-72
2023/02/26 00:24:01;;;;;;;8.63;2.83;;;;;;;;;;4952738;28;20229;-73
2023/02/26 00:26:27;;;;;;;8.47;3.57;;;;;;;;;;4954114;28;20639;-73
2023/02/26 00:28:52;;;;;;;5.10;2.63;;;;;;;;;;4954322;29;20197;-73
2023/02/26 00:31:19;;;;;;;7.63;2.37;;;;;;;;;;4953733;28;20563;-73
2023/02/26 00:33:45;;;;;;;4.40;2.43;;;;;;;;;;4952773;29;20200;-73
2023/02/26 00:36:20;;;;;;;3.20;2.17;;;;;;;;;;4954137;28;20240;-73
2023/02/26 00:38:50;;;;;;;3.07;1.80;;;;;;;;;;4955476;28;20539;-73
2023/02/26 00:41:15;;;;;;;8.03;2.57;;;;;;;;;;4955041;28;20181;-73
2023/02/26 00:43:41;;;;;;;4.77;2.30;;;;;;;;;;4955035;29;20204;-73
2023/02/26 00:46:25;;;;;;;3.37;1.90;;;;;;;;;;4954866;28;20187;-73
2023/02/26 00:48:50;;;;;;;6.23;2.20;;;;;;;;;;4949073;29;20252;-73
2023/02/26 00:51:24;;;;;;;3.80;1.73;;;;;;;;;;4952589;28;20272;-73
2023/02/26 00:53:58;;;;;;;3.33;1.20;;;;;;;;;;4949987;28;20242;-74
2023/02/26 00:56:23;;;;;;;4.57;0.93;;;;;;;;;;4951066;29;20185;-73
2023/02/26 00:58:48;;;;;;;3.13;1.20;;;;;;;;;;4953611;29;20551;-73
2023/02/26 01:01:14;;;;;;;2.57;0.80;;;;;;;;;;4959495;28;20180;-73
2023/02/26 01:03:39;;;;;;;2.57;1.00;;;;;;;;;;4953618;28;20259;-73
2023/02/26 01:06:08;;;;;;;3.53;0.97;;;;;;;;;;4953629;28;20177;-73
2023/02/26 01:08:39;;;;;;;2.83;0.80;;;;;;;;;;4959445;28;20655;-73
2023/02/26 01:11:05;;;;;;;2.40;0.80;;;;;;;;;;4952300;29;20177;-73
2023/02/26 01:13:30;;;;;;;3.87;1.27;;;;;;;;;;4951918;28;20280;-73
2023/02/26 01:15:59;;;;;;;8.07;1.07;;;;;;;;;;4953588;28;20654;-73
2023/02/26 01:18:27;;;;;;;5.83;0.87;;;;;;;;;;4967644;28;20177;-73
2023/02/26 01:20:56;;;;;;;1.90;0.97;;;;;;;;;;4953026;28;20173;-73
2023/02/26 01:23:23;;;;;;;1.90;0.77;;;;;;;;;;4952991;29;20586;-73
2023/02/26 01:25:51;;;;;;;3.27;0.70;;;;;;;;;;4952268;29;20177;-73
2023/02/26 01:28:16;;;;;;;2.63;1.07;;;;;;;;;;4954171;28;20256;-73
2023/02/26 01:30:41;;;;;;;3.37;0.90;;;;;;;;;;4953906;28;20250;-73
2023/02/26 01:33:07;;;;;;;2.83;0.97;;;;;;;;;;4949361;28;20180;-73
2023/02/26 01:35:47;;;;;;;3.37;0.70;;;;;;;;;;4948062;29;20303;-73
2023/02/26 01:38:16;;;;;;;2.93;0.60;;;;;;;;;;4956778;28;20177;-73
2023/02/26 01:40:59;;;;;;;4.73;0.70;;;;;;;;;;4956794;29;20268;-74
2023/02/26 01:43:31;;;;;;;1.17;0.60;;;;;;;;;;4956730;28;20197;-73
2023/02/26 01:46:22;;;;;;;5.07;0.70;;;;;;;;;;4958401;28;20181;-73
2023/02/26 01:48:47;;;;;;;4.13;0.70;;;;;;;;;;4957204;28;20672;-73
2023/02/26 01:51:13;;;;;;;3.53;0.60;;;;;;;;;;4955266;29;20227;-73
2023/02/26 01:53:38;;;;;;;4.70;0.60;;;;;;;;;;4955191;29;20332;-73
2023/02/26 01:56:08;;;;;;;3.13;0.93;;;;;;;;;;4955216;29;20180;-73
2023/02/26 01:58:34;;;;;;;4.40;0.97;;;;;;;;;;4971141;28;20183;-73
2023/02/26 02:01:00;;;;;;;4.27;0.97;;;;;;;;;;4956396;28;20185;-73
2023/02/26 02:03:27;;;;;;;3.53;0.93;;;;;;;;;;4956039;28;20259;-73
2023/02/26 02:05:55;;;;;;;3.83;1.03;;;;;;;;;;4956974;28;20646;-75
2023/02/26 02:08:20;;;;;;;6.27;1.37;;;;;;;;;;4956200;28;20647;-73
2023/02/26 02:10:47;;;;;;;1.43;0.93;;;;;;;;;;4956643;28;20184;-73
2023/02/26 02:13:23;;;;;;;2.37;0.83;;;;;;;;;;4955804;28;20216;-72
2023/02/26 02:15:54;;;;;;;4.17;1.00;;;;;;;;;;4956422;28;20235;-72
2023/02/26 02:18:28;;;;;;;4.73;0.60;;;;;;;;;;4956068;28;20228;-75
2023/02/26 02:21:03;;;;;;;4.60;0.87;;;;;;;;;;4955672;28;20182;-72
2023/02/26 02:23:37;;;;;;;2.67;0.83;;;;;;;;;;4955640;29;20216;-74
2023/02/26 02:26:11;;;;;;;2.70;0.80;;;;;;;;;;4955772;28;20168;-72
2023/02/26 02:28:47;;;;;;;2.17;0.70;;;;;;;;;;4955894;28;20211;-72
2023/02/26 02:31:31;;;;;;;4.07;1.07;;;;;;;;;;4970506;28;20177;-75
2023/02/26 02:34:02;;;;;;;1.73;0.60;;;;;;;;;;4950886;28;20591;-73
2023/02/26 02:36:37;;;;;;;7.47;1.87;;;;;;;;;;4953865;28;20607;-73
2023/02/26 02:39:06;;;;;;;1.10;0.63;;;;;;;;;;4954854;29;20473;-73
2023/02/26 02:41:54;;;;;;;3.50;0.67;;;;;;;;;;4955566;28;20544;-72
2023/02/26 02:44:22;;;;;;;6.23;1.60;;;;;;;;;;4951930;28;20686;-73
2023/02/26 02:46:49;;;;;;;1.73;0.90;;;;;;;;;;4955556;28;20173;-73
2023/02/26 02:49:33;;;;;;;4.43;0.80;;;;;;;;;;4955511;28;20268;-73
2023/02/26 02:52:12;;;;;;;5.17;0.90;;;;;;;;;;4965272;28;20223;-73
2023/02/26 02:54:37;;;;;;;8.03;1.10;;;;;;;;;;4955476;28;20224;-73
2023/02/26 02:57:23;;;;;;;3.73;0.93;;;;;;;;;;4953973;28;20211;-72
2023/02/26 02:59:51;;;;;;;4.40;0.70;;;;;;;;;;4955709;28;20228;-72
2023/02/26 03:02:27;;;;;;;3.70;0.70;;;;;;;;;;4953734;29;20169;-73
2023/02/26 03:04:52;;;;;;;7.10;1.47;;;;;;;;;;4955321;28;20199;-72
2023/02/26 03:07:17;;;;;;;3.50;0.70;;;;;;;;;;4955148;28;20181;-73
2023/02/26 03:09:42;;;;;;;1.90;0.60;;;;;;;;;;4955283;28;20215;-73
2023/02/26 03:12:08;;;;;;;4.33;0.57;;;;;;;;;;4955020;28;20211;-72
2023/02/26 03:14:34;;;;;;;4.13;0.70;;;;;;;;;;4955153;28;20628;-73
2023/02/26 03:17:05;;;;;;;5.70;0.73;;;;;;;;;;4955526;28;20181;-73
2023/02/26 03:19:37;;;;;;;2.00;0.63;;;;;;;;;;4953548;28;20185;-72
2023/02/26 03:22:08;;;;;;;3.00;0.93;;;;;;;;;;4953430;29;20256;-74
2023/02/26 03:24:39;;;;;;;1.57;0.33;;;;;;;;;;4954709;28;20243;-73
2023/02/26 03:27:10;;;;;;;2.60;0.60;;;;;;;;;;4954918;29;20184;-72
2023/02/26 03:29:46;;;;;;;3.90;0.90;;;;;;;;;;4959202;28;20169;-73
2023/02/26 03:32:18;;;;;;;2.93;0.63;;;;;;;;;;4958630;29;20184;-73
2023/02/26 03:34:48;;;;;;;1.40;0.87;;;;;;;;;;4947868;29;20236;-73
2023/02/26 03:37:20;;;;;;;1.27;0.70;;;;;;;;;;4946408;29;20271;-74
2023/02/26 03:39:48;;;;;;;3.03;0.70;;;;;;;;;;4954944;28;20651;-74
2023/02/26 03:42:17;;;;;;;0.97;0.50;;;;;;;;;;4954691;29;20177;-74
2023/02/26 03:44:57;;;;;;;2.23;0.53;;;;;;;;;;4954402;29;20723;-73
2023/02/26 03:47:22;;;;;;;1.40;0.60;;;;;;;;;;4954572;29;20239;-73
2023/02/26 03:49:51;;;;;;;2.40;0.70;;;;;;;;;;4954243;28;20256;-74
2023/02/26 03:52:18;;;;;;;2.47;0.80;;;;;;;;;;4954364;28;20243;-73
2023/02/26 03:54:54;;;;;;;4.80;0.53;;;;;;;;;;4954569;28;20643;-73
2023/02/26 03:57:19;;;;;;;7.67;1.00;;;;;;;;;;4954437;28;20177;-73
2023/02/26 03:59:44;;;;;;;3.90;1.03;;;;;;;;;;4954580;28;20169;-73
2023/02/26 04:02:12;;;;;;;4.40;0.60;;;;;;;;;;4954228;28;20173;-73
2023/02/26 04:04:42;;;;;;;2.23;0.50;;;;;;;;;;4954146;28;20201;-74
2023/02/26 04:07:09;;;;;;;5.43;0.67;;;;;;;;;;4952932;28;20667;-73
2023/02/26 04:09:34;;;;;;;2.07;0.70;;;;;;;;;;4954138;28;20185;-73
2023/02/26 04:12:00;;;;;;;1.87;0.70;;;;;;;;;;4969164;28;20213;-73
2023/02/26 04:14:25;;;;;;;4.33;1.07;;;;;;;;;;4968732;28;20211;-74
2023/02/26 04:16:50;;;;;;;2.63;0.80;;;;;;;;;;4953890;28;20173;-73
2023/02/26 04:19:15;;;;;;;5.70;0.90;;;;;;;;;;4953754;29;20169;-75
2023/02/26 04:21:40;;;;;;;2.53;0.60;;;;;;;;;;4953784;28;20177;-73
2023/02/26 04:24:06;;;;;;;4.43;0.50;;;;;;;;;;4969867;23;20655;-77
2023/02/26 04:26:31;;;;;;;2.67;0.53;;;;;;;;;;4975023;28;20180;-77
2023/02/26 04:28:56;;;;;;;1.80;0.80;;;;;;;;;;4974982;28;20180;-75
2023/02/26 04:31:21;;;;;;;6.20;0.60;;;;;;;;;;4974805;28;20191;-76
2023/02/26 04:33:46;;;;;;;3.27;0.50;;;;;;;;;;4971646;28;20215;-76
2023/02/26 04:36:12;;;;;;;2.73;0.40;;;;;;;;;;4966873;28;20621;-76
2023/02/26 04:38:37;;;;;;;3.23;0.80;;;;;;;;;;4965758;28;20681;-76
2023/02/26 04:41:03;;;;;;;2.73;0.90;;;;;;;;;;4974199;28;20551;-77
2023/02/26 04:43:28;;;;;;;2.70;0.70;;;;;;;;;;4973028;28;20188;-77
2023/02/26 04:45:53;;;;;;;3.97;0.90;;;;;;;;;;4973232;28;20176;-77
2023/02/26 04:48:19;;;;;;;7.53;0.60;;;;;;;;;;4975032;28;20194;-78
2023/02/26 04:50:45;;;;;;;5.20;0.67;;;;;;;;;;4974942;28;20184;-78
2023/02/26 04:53:10;;;;;;;7.70;1.00;;;;;;;;;;4973805;28;20183;-77
2023/02/26 04:55:36;;;;;;;3.90;0.97;;;;;;;;;;4973185;28;20212;-78
2023/02/26 04:58:01;;;;;;;3.33;0.53;;;;;;;;;;4974474;28;20173;-77
2023/02/26 05:00:26;;;;;;;5.83;0.70;;;;;;;;;;4974048;28;20556;-78
2023/02/26 05:02:52;;;;;;;1.13;0.50;;;;;;;;;;4973670;28;20164;-78
2023/02/26 05:05:17;;;;;;;1.37;0.50;;;;;;;;;;4973468;28;20203;-77
2023/02/26 05:07:42;;;;;;;2.57;0.50;;;;;;;;;;4974352;28;20172;-75
2023/02/26 05:10:08;;;;;;;2.87;0.73;;;;;;;;;;4977471;28;20207;-76
2023/02/26 05:12:33;;;;;;;1.53;0.50;;;;;;;;;;4993007;28;20509;-76
2023/02/26 05:14:58;;;;;;;1.50;0.40;;;;;;;;;;4977297;28;20241;-76
2023/02/26 05:17:23;;;;;;;2.67;0.60;;;;;;;;;;4978336;28;20590;-76
2023/02/26 05:19:49;;;;;;;1.40;0.97;;;;;;;;;;4979025;28;20214;-77
2023/02/26 05:22:14;;;;;;;1.77;0.50;;;;;;;;;;4978485;28;20212;-77
2023/02/26 05:24:39;;;;;;;3.67;0.50;;;;;;;;;;4977959;28;20251;-76
2023/02/26 05:27:04;;;;;;;4.97;0.90;;;;;;;;;;4978033;28;20176;-76
2023/02/26 05:29:30;;;;;;;1.20;0.53;;;;;;;;;;4973828;28;20212;-77
2023/02/26 05:31:55;;;;;;;1.70;0.50;;;;;;;;;;4977766;28;20259;-76
2023/02/26 05:34:20;;;;;;;4.40;0.60;;;;;;;;;;4977655;28;20212;-77
2023/02/26 05:36:45;;;;;;;2.70;0.70;;;;;;;;;;4971530;28;20176;-77
2023/02/26 05:39:10;;;;;;;3.00;0.60;;;;;;;;;;4972757;28;20188;-76
2023/02/26 05:41:35;;;;;;;2.63;0.80;;;;;;;;;;4977517;28;20693;-76
2023/02/26 05:44:01;;;;;;;4.13;0.50;;;;;;;;;;4977703;28;20196;-77
2023/02/26 05:46:27;;;;;;;3.13;0.50;;;;;;;;;;4977186;28;20204;-76
2023/02/26 05:48:52;;;;;;;1.60;0.50;;;;;;;;;;4977338;28;20176;-76
2023/02/26 05:51:17;;;;;;;3.37;0.67;;;;;;;;;;4976192;28;20183;-77
2023/02/26 05:53:43;;;;;;;4.53;0.80;;;;;;;;;;4972923;28;20693;-76
2023/02/26 05:56:08;;;;;;;2.70;0.50;;;;;;;;;;4975008;28;20180;-76
2023/02/26 05:58:34;;;;;;;1.60;0.80;;;;;;;;;;4977268;28;20531;-77
2023/02/26 06:00:59;;;;;;;3.47;1.37;;;;;;;;;;4977655;28;20180;-77
2023/02/26 06:03:25;;;;;;;2.83;0.50;;;;;;;;;;4978059;28;20192;-76
2023/02/26 06:05:50;;;;;;;1.73;0.70;;;;;;;;;;4977691;28;20156;-76
2023/02/26 06:08:15;;;;;;;1.10;0.30;;;;;;;;;;4977143;28;20172;-76
2023/02/26 06:10:41;;;;;;;3.57;0.80;;;;;;;;;;4973966;28;20720;-76
2023/02/26 06:13:06;;;;;;;4.00;0.70;;;;;;;;;;4976590;28;20191;-77
2023/02/26 06:15:31;;;;;;;2.77;0.70;;;;;;;;;;4978504;28;20212;-76
2023/02/26 06:17:57;;;;;;;3.43;0.60;;;;;;;;;;4976555;28;20627;-77
2023/02/26 06:20:22;;;;;;;1.40;0.40;;;;;;;;;;4975269;28;20247;-77
2023/02/26 06:22:47;;;;;;;2.43;0.47;;;;;;;;;;4976783;28;20200;-76
2023/02/26 06:25:12;;;;;;;2.17;0.43;;;;;;;;;;4975918;28;20232;-76
2023/02/26 06:27:37;;;;;;;3.03;0.80;;;;;;;;;;4975858;28;20172;-77
2023/02/26 06:30:03;;;;;;;5.37;1.20;;;;;;;;;;4972948;28;20231;-76
2023/02/26 06:32:28;;;;;;;4.23;0.97;;;;;;;;;;4975967;28;20173;-76
2023/02/26 06:34:54;;;;;;;3.30;0.60;;;;;;;;;;4974994;28;20196;-76
2023/02/26 06:37:19;;;;;;;0.87;0.60;;;;;;;;;;4975202;28;20184;-77
2023/02/26 06:39:44;;;;;;;5.03;1.33;;;;;;;;;;4974596;28;20207;-77
2023/02/26 06:42:10;;;;;;;5.47;1.13;;;;;;;;;;4976365;28;20311;-76
2023/02/26 06:44:35;;;;;;;4.30;1.20;;;;;;;;;;4975630;28;20200;-77
2023/02/26 06:47:00;;;;;;;2.73;0.50;;;;;;;;;;4976553;28;20183;-77
2023/02/26 06:49:25;;;;;;;3.53;0.50;;;;;;;;;;4975066;28;20172;-76
2023/02/26 06:51:50;;;;;;;5.03;0.40;;;;;;;;;;4976224;28;20180;-75
2023/02/26 06:54:16;;;;;;;2.83;0.23;;;;;;;;;;4973111;28;20744;-76
2023/02/26 06:56:41;;;;;;;1.10;0.53;;;;;;;;;;4969801;28;20192;-77
2023/02/26 06:59:06;;;;;;;1.07;0.53;;;;;;;;;;4976091;28;20184;-77
2023/02/26 07:01:31;;;;;;;0.60;0.37;;;;;;;;;;4971475;28;20177;-77
2023/02/26 07:03:57;;;;;;;6.90;0.63;;;;;;;;;;4973794;28;20287;-77
2023/02/26 07:06:22;;;;;;;5.00;0.50;;;;;;;;;;4976429;28;20168;-77
2023/02/26 07:08:47;;;;;;;0.90;0.50;;;;;;;;;;4977459;28;20196;-77
2023/02/26 07:11:13;;;;;;;5.10;0.77;;;;;;;;;;4972859;28;20172;-77
2023/02/26 07:13:38;;;;;;;4.27;0.53;;;;;;;;;;4976780;28;20176;-77
2023/02/26 07:16:06;;;;;;;2.33;0.80;;;;;;;;;;4974995;28;20674;-77
2023/02/26 07:18:31;;;;;;;1.73;0.70;;;;;;;;;;4975729;28;20204;-77
2023/02/26 07:20:57;;;;;;;2.23;0.70;;;;;;;;;;4975050;28;20620;-77
2023/02/26 07:23:22;;;;;;;5.40;2.80;;;;;;;;;;4976760;28;20177;-77
2023/02/26 07:25:48;;;;;;;3.57;0.83;;;;;;;;;;4976799;28;20211;-77
2023/02/26 07:28:13;;;;;;;6.67;1.43;;;;;;;;;;4975946;28;20180;-76
2023/02/26 07:30:41;;;;;;;4.47;1.17;;;;;;;;;;4975314;28;20195;-78
2023/02/26 07:33:06;;;;;;;0.97;0.50;;;;;;;;;;4977020;28;20180;-77
2023/02/26 07:35:31;;;;;;;1.80;0.80;;;;;;;;;;4975404;28;20211;-77
2023/02/26 07:37:56;;;;;;;2.20;0.60;;;;;;;;;;4973832;28;20234;-77
2023/02/26 07:40:22;;;;;;;1.40;0.40;;;;;;;;;;4975551;28;20184;-78
2023/02/26 07:42:47;;;;;;;3.90;0.77;;;;;;;;;;4978601;28;20173;-78
2023/02/26 07:45:12;;;;;;;4.03;0.57;;;;;;;;;;4976597;28;20580;-77
2023/02/26 07:47:37;;;;;;;3.60;1.23;;;;;;;;;;4974414;28;20318;-77
2023/02/26 07:50:03;;;;;;;1.13;0.53;;;;;;;;;;4974676;28;20665;-77
2023/02/26 07:52:28;;;;;;;3.37;0.70;;;;;;;;;;4972524;28;20188;-77
2023/02/26 07:54:54;;;;;;;4.03;0.63;;;;;;;;;;4973206;28;20219;-77
2023/02/26 07:57:19;;;;;;;2.37;0.50;;;;;;;;;;4974491;28;20178;-76
2023/02/26 07:59:44;;;;;;;1.90;0.60;;;;;;;;;;4974456;28;20533;-77
2023/02/26 08:02:10;;;;;;;5.30;0.80;;;;;;;;;;4967959;28;20182;-76
2023/02/26 08:04:35;;;;;;;3.40;0.70;;;;;;;;;;4971321;28;20201;-77
2023/02/26 08:07:01;;;;;;;6.43;2.47;;;;;;;;;;4976076;28;20183;-76
2023/02/26 08:09:26;;;;;;;0.93;0.40;;;;;;;;;;4975511;28;20176;-77
2023/02/26 08:11:52;;;;;;;3.20;0.87;;;;;;;;;;4974102;28;20172;-77
2023/02/26 08:14:17;;;;;;;3.67;0.80;;;;;;;;;;4974222;28;20207;-77
2023/02/26 08:16:42;;;;;;;8.77;0.93;;;;;;;;;;4974160;28;20525;-76
2023/02/26 08:19:07;;;;;;;3.57;1.00;;;;;;;;;;4973073;28;20643;-78
2023/02/26 08:21:33;;;;;;;5.03;0.70;;;;;;;;;;4973456;28;20483;-76
2023/02/26 08:23:58;;;;;;;0.80;0.60;;;;;;;;;;4974231;28;20207;-76
2023/02/26 08:26:23;;;;;;;1.70;0.70;;;;;;;;;;4974032;28;20531;-76
2023/02/26 08:28:48;;;;;;;1.77;0.50;;;;;;;;;;4974719;28;20184;-76
2023/02/26 08:31:14;;;;;;;3.73;0.53;;;;;;;;;;4974170;28;20187;-76
2023/02/26 08:33:40;;;;;;;3.03;0.53;;;;;;;;;;4965174;28;20204;-76
2023/02/26 08:36:05;;;;;;;1.63;0.70;;;;;;;;;;4972246;28;20208;-77
2023/02/26 08:38:31;;;;;;;5.43;1.07;;;;;;;;;;4973784;28;20187;-77
2023/02/26 08:40:56;;;;;;;2.73;0.50;;;;;;;;;;4975686;28;20382;-77
2023/02/26 08:43:21;;;;;;;4.90;0.70;;;;;;;;;;4973064;28;20210;-78
2023/02/26 08:45:47;;;;;;;2.30;0.70;;;;;;;;;;4974555;28;20187;-77
2023/02/26 08:48:12;;;;;;;1.33;0.50;;;;;;;;;;4975225;28;20630;-77
2023/02/26 08:50:39;;;;;;;1.70;0.50;;;;;;;;;;4973318;28;20208;-77
2023/02/26 08:53:04;;;;;;;2.57;0.60;;;;;;;;;;4972466;28;20180;-77
2023/02/26 08:55:29;;;;;;;2.40;0.90;;;;;;;;;;4974377;28;20674;-77
2023/02/26 08:57:54;;;;;;;0.40;0.30;;;;;;;;;;4974129;28;20169;-77
2023/02/26 09:00:20;;;;;;;0.43;0.40;;;;;;;;;;4972307;28;20581;-76
2023/02/26 09:02:45;;;;;;;1.87;0.60;;;;;;;;;;4965474;28;20176;-77
2023/02/26 09:05:13;;;;;;;1.83;0.60;;;;;;;;;;4965749;28;20212;-77
2023/02/26 09:07:39;;;;;;;3.67;0.53;;;;;;;;;;4971424;28;20191;-77
2023/02/26 09:10:04;;;;;;;2.67;0.60;;;;;;;;;;4973544;28;20176;-77
2023/02/26 09:12:29;;;;;;;1.70;0.40;;;;;;;;;;4971134;28;20199;-77
2023/02/26 09:14:57;;;;;;;2.80;0.50;;;;;;;;;;4971748;28;20212;-77
2023/02/26 09:17:23;;;;;;;2.00;0.30;;;;;;;;;;4973375;28;20315;-77
2023/02/26 09:19:48;;;;;;;1.07;0.40;;;;;;;;;;4974444;28;20224;-77
2023/02/26 09:22:13;;;;;;;3.03;0.57;;;;;;;;;;4974152;28;20191;-77
2023/02/26 09:24:38;;;;;;;3.67;0.40;;;;;;;;;;4974215;28;20212;-77
2023/02/26 09:27:03;;;;;;;1.03;0.40;;;;;;;;;;4974534;28;20251;-76
2023/02/26 09:29:29;;;;;;;3.07;0.47;;;;;;;;;;4972311;28;20185;-77
2023/02/26 09:31:54;;;;;;;2.87;0.30;;;;;;;;;;4970047;28;20187;-77
2023/02/26 09:34:19;;;;;;;1.33;0.40;;;;;;;;;;4974018;28;20212;-77
2023/02/26 09:36:45;;;;;;;1.33;0.40;;;;;;;;;;4988843;28;20593;-78
2023/02/26 09:39:10;;;;;;;1.63;0.47;;;;;;;;;;4974170;28;20250;-77
2023/02/26 09:41:41;;;;;;;4.03;0.60;;;;;;;;;;4974887;28;20260;-77
2023/02/26 09:44:10;;;;;;;1.80;0.40;;;;;;;;;;4974399;28;20203;-78
2023/02/26 09:46:45;;;;;;;1.63;0.50;;;;;;;;;;4962756;28;20183;-78
2023/02/26 09:49:18;;;;;;;1.10;0.40;;;;;;;;;;4986215;28;20223;-78
2023/02/26 09:51:44;;;;;;;1.90;0.57;;;;;;;;;;4971059;28;20168;-78
2023/02/26 09:54:14;;;;;;;0.90;0.50;;;;;;;;;;4966022;28;20671;-78
2023/02/26 09:56:40;;;;;;;2.17;0.33;;;;;;;;;;4974706;28;20211;-78
2023/02/26 09:59:07;;;;;;;2.47;0.40;;;;;;;;;;4976338;28;20177;-78
2023/02/26 10:01:48;;;;;;;1.97;0.57;;;;;;;;;;4973897;28;20658;-78
2023/02/26 10:04:25;;;;;;;1.90;0.50;;;;;;;;;;4986334;28;20288;-76
2023/02/26 10:07:00;;;;;;;0.50;0.30;;;;;;;;;;4965304;28;20184;-76
2023/02/26 10:09:34;;;;;;;1.77;0.30;;;;;;;;;;4973392;28;20681;-76
2023/02/26 10:12:02;;;;;;;3.43;0.47;;;;;;;;;;4976641;28;20190;-76
2023/02/26 10:14:46;;;;;;;0.87;0.40;;;;;;;;;;4977358;28;20204;-75
2023/02/26 10:17:25;;;;;;;1.30;0.50;;;;;;;;;;4978653;28;20165;-76
2023/02/26 10:19:52;;;;;;;1.60;0.50;;;;;;;;;;4976663;28;20567;-77
2023/02/26 10:22:38;;;;;;;0.80;0.33;;;;;;;;;;4975723;28;20204;-77
2023/02/26 10:25:12;;;;;;;3.30;1.10;;;;;;;;;;4973183;28;20266;-80
2023/02/26 10:27:55;;;;;;;1.63;0.50;;;;;;;;;;4969016;28;20180;-81
2023/02/26 10:30:29;;;;;;;1.27;0.40;;;;;;;;;;4986039;28;20187;-80
2023/02/26 10:32:58;;;;;;;1.50;0.60;;;;;;;;;;4980809;28;20173;-80
2023/02/26 10:35:26;;;;;;;1.03;0.47;;;;;;;;;;4979080;28;20204;-79
2023/02/26 10:37:51;;;;;;;2.47;0.40;;;;;;;;;;4976394;28;20180;-80
2023/02/26 10:40:16;;;;;;;3.53;0.40;;;;;;;;;;4977966;28;20255;-79
2023/02/26 10:43:00;;;;;;;0.60;0.40;;;;;;;;;;4977737;28;20523;-80
2023/02/26 10:45:44;;;;;;;2.37;0.73;;;;;;;;;;4971596;28;20682;-80
2023/02/26 10:48:32;;;;;;;1.83;0.37;;;;;;;;;;4977598;28;20209;-80
2023/02/26 10:50:59;;;;;;;2.23;0.70;;;;;;;;;;4977010;28;20192;-79
2023/02/26 10:53:26;;;;;;;1.37;0.40;;;;;;;;;;4983196;28;20152;-79
2023/02/26 10:55:54;;;;;;;1.47;0.50;;;;;;;;;;4982577;28;20222;-79
2023/02/26 10:58:21;;;;;;;1.90;0.60;;;;;;;;;;4980879;28;20192;-79
2023/02/26 11:00:49;;;;;;;1.37;0.90;;;;;;;;;;4980475;28;20168;-79
2023/02/26 11:03:16;;;;;;;3.47;0.83;;;;;;;;;;4983766;28;20183;-78
2023/02/26 11:05:42;;;;;;;3.00;0.60;;;;;;;;;;4983223;28;20601;-80
2023/02/26 11:08:14;;;;;;;1.20;0.50;;;;;;;;;;4979843;28;20190;-80
2023/02/26 11:10:41;;;;;;;2.97;0.30;;;;;;;;;;4977096;28;20584;-81
2023/02/26 11:13:06;;;;;;;1.23;0.60;;;;;;;;;;4983088;28;20179;-79
2023/02/26 11:15:31;;;;;;;1.17;0.40;;;;;;;;;;4977235;28;20298;-81
2023/02/26 11:17:58;;;;;;;0.50;0.40;;;;;;;;;;4976739;28;20259;-81
2023/02/26 11:20:37;;;;;;;3.90;0.30;;;;;;;;;;4993134;28;20527;-80
2023/02/26 11:23:03;;;;;;;2.93;0.50;;;;;;;;;;4975387;28;20172;-81
2023/02/26 11:25:30;;;;;;;1.33;0.50;;;;;;;;;;4976409;28;20204;-80
2023/02/26 11:28:07;;;;;;;3.13;0.57;;;;;;;;;;4976623;28;20183;-80
2023/02/26 11:30:35;;;;;;;1.63;0.50;;;;;;;;;;4976845;28;20210;-80
2023/02/26 11:33:19;;;;;;;2.70;0.50;;;;;;;;;;4972409;28;20262;-78
2023/02/26 11:35:45;;;;;;;1.80;0.97;;;;;;;;;;4980846;28;20203;-79
2023/02/26 11:38:14;;;;;;;6.03;1.07;;;;;;;;;;4980097;28;20177;-78
2023/02/26 11:40:40;;;;;;;1.17;0.70;;;;;;;;;;4979010;28;20677;-80
2023/02/26 11:43:14;;;;;;;1.60;0.30;;;;;;;;;;4968151;28;20179;-80
2023/02/26 11:45:41;;;;;;;3.70;1.10;;;;;;;;;;4975639;28;20211;-80
2023/02/26 11:48:10;;;;;;;1.00;0.50;;;;;;;;;;4975998;28;20220;-81
2023/02/26 11:50:43;;;;;;;0.90;0.40;;;;;;;;;;4974050;28;20263;-78
2023/02/26 11:53:38;;;;;;;1.13;0.37;;;;;;;;;;4978102;28;20216;-79
2023/02/26 11:56:08;;;;;;;1.20;0.53;;;;;;;;;;4976397;28;20224;-79
2023/02/26 11:58:36;;;;;;;1.13;0.30;;;;;;;;;;5002707;28;20176;-79
2023/02/26 12:01:01;;;;;;;1.63;0.40;;;;;;;;;;4981102;28;20181;-79
2023/02/26 12:03:28;;;;;;;1.07;0.40;;;;;;;;;;4988512;28;20186;-79
2023/02/26 12:05:53;;;;;;;3.13;0.60;;;;;;;;;;4987497;28;20189;-79
2023/02/26 12:08:26;;;;;;;0.83;0.50;;;;;;;;;;4989207;28;20179;-78
2023/02/26 12:10:57;;;;;;;1.10;0.40;;;;;;;;;;4986396;28;20211;-81
2023/02/26 12:13:34;;;;;;;1.90;0.50;;;;;;;;;;4995057;28;20177;-79
2023/02/26 12:16:03;;;;;;;1.53;0.40;;;;;;;;;;4986305;28;20683;-79
2023/02/26 12:18:44;;;;;;;2.37;1.40;;;;;;;;;;4984689;28;20177;-79
2023/02/26 12:21:21;;;;;;;2.43;0.67;;;;;;;;;;4983271;28;20169;-80
2023/02/26 12:24:19;;;;;;;3.67;0.50;;;;;;;;;;4982733;28;20231;-79
2023/02/26 12:27:11;;;;;;;1.50;0.40;;;;;;;;;;4993130;28;20271;-80
2023/02/26 12:29:46;;;;;;;1.50;0.40;;;;;;;;;;4974209;28;20204;-80
2023/02/26 12:32:23;;;;;;;3.63;0.50;;;;;;;;;;4977906;28;20152;-79
2023/02/26 12:35:07;;;;;;;0.53;0.33;;;;;;;;;;4979682;28;20320;-79
2023/02/26 12:37:40;;;;;;;1.87;0.50;;;;;;;;;;4982521;28;20177;-80
2023/02/26 12:40:11;;;;;;;2.63;0.50;;;;;;;;;;4977277;28;20188;-79
2023/02/26 12:42:42;;;;;;;0.60;0.37;;;;;;;;;;4981622;28;20566;-80
2023/02/26 12:45:07;;;;;;;2.37;0.40;;;;;;;;;;4981899;28;20306;-79
2023/02/26 12:47:53;;;;;;;1.20;0.60;;;;;;;;;;4979192;28;20168;-80
2023/02/26 12:50:18;;;;;;;2.73;0.50;;;;;;;;;;4985988;28;20192;-79
2023/02/26 12:52:50;;;;;;;8.10;1.23;;;;;;;;;;4982051;28;20175;-79
2023/02/26 12:55:34;;;;;;;0.77;0.33;;;;;;;;;;4980692;28;20232;-80
2023/02/26 12:58:08;;;;;;;4.17;0.53;;;;;;;;;;4974826;28;20196;-80
2023/02/26 13:00:43;;;;;;;1.37;0.50;;;;;;;;;;4982193;28;20168;-80
2023/02/26 13:03:44;;;;;;;1.67;0.40;;;;;;;;;;4970449;28;20254;-80
2023/02/26 13:06:18;;;;;;;1.33;0.60;;;;;;;;;;4989449;28;20188;-80
2023/02/26 13:08:50;;;;;;;0.70;0.40;;;;;;;;;;4976931;28;20188;-80
2023/02/26 13:11:24;;;;;;;1.13;0.80;;;;;;;;;;4977449;28;20200;-80
2023/02/26 13:14:18;;;;;;;0.30;0.23;;;;;;;;;;4977492;28;20214;-81
2023/02/26 13:16:49;;;;;;;1.30;0.67;;;;;;;;;;4977072;28;20227;-80
2023/02/26 13:19:25;;;;;;;2.60;0.70;;;;;;;;;;4969751;28;20172;-81
2023/02/26 13:21:54;;;;;;;1.50;0.37;;;;;;;;;;4970402;28;20176;-80
2023/02/26 13:24:26;;;;;;;0.70;0.40;;;;;;;;;;4978153;28;20671;-80
2023/02/26 13:26:52;;;;;;;4.40;0.53;;;;;;;;;;4976193;28;20195;-80
2023/02/26 13:29:19;;;;;;;2.17;0.50;;;;;;;;;;4977917;28;20187;-81
2023/02/26 13:31:51;;;;;;;2.37;0.50;;;;;;;;;;4982081;28;20263;-81
2023/02/26 13:34:19;;;;;;;0.47;0.33;;;;;;;;;;4973932;28;20259;-80
2023/02/26 13:36:45;;;;;;;1.33;0.57;;;;;;;;;;4976273;28;20188;-80
2023/02/26 13:39:30;;;;;;;0.80;0.40;;;;;;;;;;4994971;28;20187;-81
2023/02/26 13:42:13;;;;;;;0.80;0.33;;;;;;;;;;4981369;28;20539;-80
2023/02/26 13:44:58;;;;;;;1.00;0.30;;;;;;;;;;4979903;28;20226;-80
2023/02/26 13:47:30;;;;;;;0.90;0.30;;;;;;;;;;4979676;28;20197;-80
2023/02/26 13:50:03;;;;;;;2.23;0.50;;;;;;;;;;4993656;28;20172;-80
2023/02/26 13:52:30;;;;;;;2.73;0.50;;;;;;;;;;4980355;28;20609;-80
2023/02/26 13:54:58;;;;;;;0.80;0.20;;;;;;;;;;4977553;28;20212;-81
2023/02/26 13:57:41;;;;;;;1.73;0.40;;;;;;;;;;4978186;28;20546;-79
2023/02/26 14:00:29;;;;;;;1.90;0.40;;;;;;;;;;4983351;28;20176;-79
2023/02/26 14:02:56;;;;;;;2.87;0.40;;;;;;;;;;4982026;28;20650;-79
2023/02/26 14:05:29;;;;;;;1.57;0.40;;;;;;;;;;4982868;28;20238;-80
2023/02/26 14:07:58;;;;;;;1.47;0.70;;;;;;;;;;4983225;28;20187;-80
2023/02/26 14:10:26;;;;;;;1.47;0.50;;;;;;;;;;4977794;28;20552;-80
2023/02/26 14:13:02;;;;;;;1.23;0.80;;;;;;;;;;4980410;28;20176;-80
2023/02/26 14:15:39;;;;;;;0.90;0.40;;;;;;;;;;4985247;28;20203;-79
2023/02/26 14:18:05;;;;;;;2.23;0.60;;;;;;;;;;4980793;28;20188;-80
2023/02/26 14:20:33;;;;;;;0.90;0.37;;;;;;;;;;4981283;28;20176;-80
2023/02/26 14:23:11;;;;;;;0.73;0.70;;;;;;;;;;4980641;28;20176;-80
2023/02/26 14:25:44;;;;;;;1.00;0.53;;;;;;;;;;4991075;28;20303;-81
2023/02/26 14:28:28;;;;;;;0.77;0.40;;;;;;;;;;4979412;28;20180;-80
2023/02/26 14:31:05;;;;;;;1.50;0.50;;;;;;;;;;4992509;28;20199;-80
2023/02/26 14:33:36;;;;;;;0.67;0.37;;;;;;;;;;4978536;28;20187;-80
2023/02/26 14:36:03;;;;;;;3.73;0.60;;;;;;;;;;4978103;28;20208;-80
2023/02/26 14:38:39;;;;;;;1.33;0.40;;;;;;;;;;4980880;28;20165;-80
2023/02/26 14:41:04;;;;;;;0.60;0.30;;;;;;;;;;4978662;28;20555;-80
2023/02/26 14:43:30;;;;;;;2.60;0.60;;;;;;;;;;4980307;28;20244;-80
2023/02/26 14:45:55;;;;;;;0.90;0.30;;;;;;;;;;4977177;28;20180;-80
2023/02/26 14:48:23;;;;;;;1.00;0.40;;;;;;;;;;4974658;28;20246;-81
2023/02/26 14:51:01;;;;;;;1.93;0.50;;;;;;;;;;4979955;28;20176;-81
2023/02/26 14:53:26;;;;;;;0.87;0.40;;;;;;;;;;4973149;28;20204;-81
2023/02/26 14:56:00;;;;;;;1.37;0.40;;;;;;;;;;4980857;28;20180;-81